Time;durP1;ratioP1;P1;durP2;ratioP2;P2;SDS_P1;SDS_P2;PMS_P1;PMS_P2;Temp;Humidity;BMP_temperature;BMP_pressure;BME280_temperature;BME280_humidity;BME280_pressure;Samples;Min_cycle;Max_cycle;Signal;HPM_P1;HPM_P2
2022/11/02 00:00:30;;;;;;;;;;;11.00;99.90;;;;;;5118403;28;19994;-76
2022/11/02 00:02:56;;;;;;;;;;;11.00;99.90;;;;;;5117662;28;19955;-76
2022/11/02 00:05:24;;;;;;;;;;;11.00;99.90;;;;;;5118507;28;19912;-77
2022/11/02 00:07:53;;;;;;;;;;;11.10;99.90;;;;;;5117981;28;19916;-76
2022/11/02 00:10:20;;;;;;;;;;;11.10;99.90;;;;;;5117957;28;19994;-75
2022/11/02 00:12:46;;;;;;;;;;;11.00;99.90;;;;;;5099559;28;20394;-77
2022/11/02 00:15:11;;;;;;;;;;;11.00;99.90;;;;;;5118640;28;19908;-76
2022/11/02 00:17:37;;;;;;;;;;;10.90;99.90;;;;;;5118080;28;19998;-75
2022/11/02 00:20:04;;;;;;;;;;;10.90;99.90;;;;;;5118010;28;19908;-77
2022/11/02 00:22:30;;;;;;;;;;;11.00;99.90;;;;;;5117617;28;20411;-76
2022/11/02 00:24:56;;;;;;;;;;;10.80;99.90;;;;;;5117858;28;20007;-76
2022/11/02 00:27:22;;;;;;;;;;;10.80;99.90;;;;;;5117571;28;19947;-75
2022/11/02 00:29:48;;;;;;;;;;;10.80;99.90;;;;;;5117574;28;19915;-75
2022/11/02 00:32:13;;;;;;;;;;;10.80;99.90;;;;;;5117527;28;19907;-76
2022/11/02 00:34:39;;;;;;;;;;;10.90;99.90;;;;;;5117725;28;19954;-74
2022/11/02 00:37:04;;;;;;;;;;;10.80;99.90;;;;;;5117430;28;20369;-76
2022/11/02 00:39:30;;;;;;;;;;;10.80;99.90;;;;;;5117639;28;19977;-77
2022/11/02 00:41:55;;;;;;;;;;;10.80;99.90;;;;;;5098967;28;20412;-76
2022/11/02 00:44:21;;;;;;;;;;;10.80;99.90;;;;;;5117474;28;19920;-76
2022/11/02 00:46:46;;;;;;;;;;;10.80;99.90;;;;;;5117370;28;19996;-75
2022/11/02 00:49:12;;;;;;;;;;;10.70;99.90;;;;;;5121352;28;19914;-77
2022/11/02 00:51:37;;;;;;;;;;;10.70;99.90;;;;;;5121766;28;20257;-76
2022/11/02 00:54:03;;;;;;;;;;;10.80;99.90;;;;;;5119807;28;19915;-77
2022/11/02 00:56:28;;;;;;;;;;;10.70;99.90;;;;;;5117333;28;19933;-76
2022/11/02 00:58:54;;;;;;;;;;;10.60;99.90;;;;;;5117003;28;19957;-76
2022/11/02 01:01:19;;;;;;;;;;;10.60;99.90;;;;;;5117006;28;19920;-76
2022/11/02 01:03:45;;;;;;;;;;;10.50;99.90;;;;;;5116813;28;19908;-77
2022/11/02 01:06:12;;;;;;;;;;;10.50;99.90;;;;;;5117154;28;19958;-77
2022/11/02 01:08:37;;;;;;;;;;;10.60;99.90;;;;;;5116789;28;20372;-77
2022/11/02 01:11:10;;;;;;;;;;;10.50;99.90;;;;;;5116756;28;19915;-78
2022/11/02 01:13:35;;;;;;;;;;;10.50;99.90;;;;;;5117279;28;19914;-76
2022/11/02 01:16:04;;;;;;;;;;;10.60;99.90;;;;;;5098889;28;19908;-78
2022/11/02 01:18:30;;;;;;;;;;;10.60;99.90;;;;;;5116900;28;19918;-76
2022/11/02 01:20:55;;;;;;;;;;;10.50;99.90;;;;;;5116601;28;19907;-77
2022/11/02 01:23:21;;;;;;;;;;;10.50;99.90;;;;;;5116460;28;19915;-76
2022/11/02 01:25:46;;;;;;;;;;;10.50;99.90;;;;;;5116410;28;19918;-76
2022/11/02 01:28:12;;;;;;;;;;;10.50;99.90;;;;;;5116446;28;19908;-77
2022/11/02 01:30:37;;;;;;;;;;;10.50;99.90;;;;;;5116370;28;19946;-77
2022/11/02 01:33:06;;;;;;;;;;;10.40;99.90;;;;;;5116315;28;19915;-75
2022/11/02 01:35:31;;;;;;;;;;;10.50;99.90;;;;;;5116306;28;19951;-77
2022/11/02 01:37:57;;;;;;;;;;;10.50;99.90;;;;;;5116261;28;19907;-76
2022/11/02 01:40:23;;;;;;;;;;;10.40;99.90;;;;;;5116505;28;19908;-78
2022/11/02 01:42:48;;;;;;;;;;;10.40;99.90;;;;;;5116170;28;19908;-78
2022/11/02 01:45:14;;;;;;;;;;;10.40;99.90;;;;;;5116013;28;20252;-78
2022/11/02 01:47:41;;;;;;;;;;;10.40;99.90;;;;;;5116092;28;19954;-77
2022/11/02 01:50:15;;;;;;;;;;;10.50;99.90;;;;;;5115994;28;20364;-77
2022/11/02 01:52:41;;;;;;;;;;;10.50;99.90;;;;;;5116212;28;19908;-76
2022/11/02 01:55:12;;;;;;;;;;;10.50;99.90;;;;;;5115919;28;19912;-76
2022/11/02 01:57:38;;;;;;;;;;;10.60;99.90;;;;;;5115879;28;19994;-77
2022/11/02 02:00:07;;;;;;;;;;;10.60;99.90;;;;;;5115782;28;20389;-77
2022/11/02 02:02:33;;;;;;;;;;;10.60;99.90;;;;;;5115627;28;19928;-78
2022/11/02 02:05:04;;;;;;;;;;;10.50;99.90;;;;;;5116164;28;19912;-78
2022/11/02 02:07:30;;;;;;;;;;;10.60;99.90;;;;;;5115386;28;19947;-77
2022/11/02 02:09:56;;;;;;;;;;;10.60;99.90;;;;;;5115589;28;20276;-77
2022/11/02 02:12:22;;;;;;;;;;;10.60;99.90;;;;;;5116119;28;19914;-78
2022/11/02 02:14:48;;;;;;;;;;;10.60;99.90;;;;;;5115514;28;19999;-77
2022/11/02 02:17:26;;;;;;;;;;;10.60;99.90;;;;;;5116297;28;19955;-76
2022/11/02 02:20:10;;;;;;;;;;;10.60;99.90;;;;;;5115465;28;19953;-76
2022/11/02 02:23:03;;;;;;;;;;;10.60;99.90;;;;;;5115313;28;19930;-77
2022/11/02 02:25:47;;;;;;;;;;;10.60;99.90;;;;;;5115829;28;20271;-77
2022/11/02 02:28:39;;;;;;;;;;;10.60;99.90;;;;;;5115487;28;20377;-76
2022/11/02 02:31:24;;;;;;;;;;;10.60;99.90;;;;;;5076188;28;20014;-78
2022/11/02 02:34:10;;;;;;;;;;;10.60;99.90;;;;;;5115468;28;19908;-79
2022/11/02 02:36:42;;;;;;;;;;;10.60;99.90;;;;;;5115138;28;19919;-77
2022/11/02 02:39:15;;;;;;;;;;;10.60;99.90;;;;;;5115636;28;19914;-76
2022/11/02 02:41:52;;;;;;;;;;;10.60;99.90;;;;;;5096766;28;19918;-76
2022/11/02 02:44:20;;;;;;;;;;;10.60;99.90;;;;;;5115521;28;20059;-76
2022/11/02 02:46:51;;;;;;;;;;;10.60;99.90;;;;;;5114891;28;19998;-78
2022/11/02 02:49:24;;;;;;;;;;;10.60;99.90;;;;;;5115232;28;20006;-75
2022/11/02 02:51:50;;;;;;;;;;;10.50;99.90;;;;;;5096590;28;20347;-78
2022/11/02 02:54:20;;;;;;;;;;;10.40;99.90;;;;;;5115035;28;19915;-76
2022/11/02 02:56:48;;;;;;;;;;;10.40;99.90;;;;;;5114795;28;19939;-76
2022/11/02 02:59:38;;;;;;;;;;;10.40;99.90;;;;;;5114687;28;19908;-76
2022/11/02 03:02:10;;;;;;;;;;;10.40;99.90;;;;;;5114593;28;19927;-76
2022/11/02 03:04:35;;;;;;;;;;;10.40;99.90;;;;;;5114872;28;19998;-77
2022/11/02 03:07:01;;;;;;;;;;;10.40;99.90;;;;;;5114604;28;20354;-77
2022/11/02 03:09:40;;;;;;;;;;;10.40;99.90;;;;;;5114535;28;19995;-77
2022/11/02 03:12:08;;;;;;;;;;;10.50;99.90;;;;;;5114798;28;19908;-76
2022/11/02 03:14:49;;;;;;;;;;;10.50;99.90;;;;;;5114453;28;19914;-76
2022/11/02 03:17:15;;;;;;;;;;;10.50;99.90;;;;;;5096660;28;19908;-77
2022/11/02 03:19:40;;;;;;;;;;;10.50;99.90;;;;;;5113572;28;19912;-77
2022/11/02 03:22:26;;;;;;;;;;;10.40;99.90;;;;;;5114558;28;19957;-78
2022/11/02 03:24:56;;;;;;;;;;;10.40;99.90;;;;;;5096419;28;19918;-78
2022/11/02 03:27:36;;;;;;;;;;;10.50;99.90;;;;;;5114280;28;20006;-76
2022/11/02 03:30:09;;;;;;;;;;;10.50;99.90;;;;;;5114813;28;19943;-77
2022/11/02 03:32:38;;;;;;;;;;;10.50;99.90;;;;;;5114533;28;19908;-77
2022/11/02 03:35:06;;;;;;;;;;;10.50;99.90;;;;;;5114450;28;19991;-78
2022/11/02 03:37:40;;;;;;;;;;;10.50;99.90;;;;;;5114130;28;19915;-76
2022/11/02 03:40:12;;;;;;;;;;;10.50;99.90;;;;;;5114437;28;20024;-77
2022/11/02 03:42:39;;;;;;;;;;;10.50;99.90;;;;;;5114112;28;19907;-76
2022/11/02 03:45:25;;;;;;;;;;;10.60;99.90;;;;;;5114064;28;19919;-77
2022/11/02 03:47:52;;;;;;;;;;;10.50;99.90;;;;;;5113315;28;19935;-76
2022/11/02 03:50:20;;;;;;;;;;;10.40;99.90;;;;;;5114331;28;19908;-76
2022/11/02 03:52:47;;;;;;;;;;;10.40;99.90;;;;;;5114048;28;19908;-78
2022/11/02 03:55:16;;;;;;;;;;;10.30;99.90;;;;;;5113986;28;19908;-76
2022/11/02 03:57:44;;;;;;;;;;;10.40;99.90;;;;;;5113924;28;19908;-77
2022/11/02 04:00:20;;;;;;;;;;;10.40;99.90;;;;;;5113900;28;19912;-77
2022/11/02 04:02:57;;;;;;;;;;;10.30;99.90;;;;;;5113818;28;19923;-75
2022/11/02 04:05:30;;;;;;;;;;;10.30;99.90;;;;;;5114100;28;19912;-76
2022/11/02 04:14:36;;;;;;;;;;;10.20;99.90;;;;;;5113570;28;20398;-78
2022/11/02 04:16:09;;;;;;;;;;;10.30;99.90;;;;;;5114634;28;19956;-77
2022/11/02 04:21:18;;;;;;;;;;;10.20;99.90;;;;;;5113708;28;19942;-76
2022/11/02 04:26:28;;;;;;;;;;;10.20;99.90;;;;;;5113678;28;19957;-77
2022/11/02 04:28:53;;;;;;;;;;;10.10;99.90;;;;;;5113592;28;20431;-77
2022/11/02 04:31:19;;;;;;;;;;;10.10;99.90;;;;;;5116913;28;19914;-76
2022/11/02 04:33:44;;;;;;;;;;;10.10;99.90;;;;;;5117367;28;19946;-78
2022/11/02 04:36:10;;;;;;;;;;;10.00;99.90;;;;;;5117713;28;20359;-77
2022/11/02 04:38:41;;;;;;;;;;;9.90;99.90;;;;;;5117670;28;19930;-76
2022/11/02 04:43:52;;;;;;;;;;;9.80;99.90;;;;;;5117582;28;19960;-79
2022/11/02 04:46:18;;;;;;;;;;;9.80;99.90;;;;;;5117149;28;19915;-76
2022/11/02 04:48:43;;;;;;;;;;;9.80;99.90;;;;;;5117144;28;19919;-77
2022/11/02 04:51:09;;;;;;;;;;;9.70;99.90;;;;;;5117051;28;19908;-78
2022/11/02 04:53:34;;;;;;;;;;;9.70;99.90;;;;;;5117349;28;19937;-77
2022/11/02 04:56:00;;;;;;;;;;;9.70;99.90;;;;;;5116952;28;19959;-77
2022/11/02 04:58:25;;;;;;;;;;;9.70;99.90;;;;;;5117262;28;19915;-77
2022/11/02 05:00:51;;;;;;;;;;;9.70;99.90;;;;;;5117025;28;19915;-76
2022/11/02 05:03:17;;;;;;;;;;;9.70;99.90;;;;;;5117402;28;19911;-76
2022/11/02 05:05:42;;;;;;;;;;;9.70;99.90;;;;;;5116702;28;19919;-76
2022/11/02 05:08:08;;;;;;;;;;;9.60;99.90;;;;;;5117044;28;19907;-76
2022/11/02 05:10:34;;;;;;;;;;;9.60;99.90;;;;;;5117030;28;19908;-75
2022/11/02 05:13:00;;;;;;;;;;;9.60;99.90;;;;;;5116993;28;19966;-77
2022/11/02 05:15:25;;;;;;;;;;;9.60;99.90;;;;;;5116640;28;20363;-77
2022/11/02 05:17:51;;;;;;;;;;;9.50;99.90;;;;;;5117685;28;19947;-76
2022/11/02 05:20:16;;;;;;;;;;;9.50;99.90;;;;;;5116518;28;20005;-77
2022/11/02 05:22:42;;;;;;;;;;;9.50;99.90;;;;;;5116607;28;19957;-76
2022/11/02 05:25:08;;;;;;;;;;;9.50;99.90;;;;;;5116358;28;19981;-76
2022/11/02 05:27:33;;;;;;;;;;;9.50;99.90;;;;;;5117008;28;19908;-77
2022/11/02 05:29:59;;;;;;;;;;;9.50;99.90;;;;;;5116390;28;19916;-77
2022/11/02 05:32:26;;;;;;;;;;;9.60;99.90;;;;;;5116838;28;20368;-76
2022/11/02 05:34:51;;;;;;;;;;;9.60;99.90;;;;;;5116275;28;19915;-76
2022/11/02 05:37:17;;;;;;;;;;;9.60;99.90;;;;;;5116192;28;20006;-77
2022/11/02 05:39:42;;;;;;;;;;;9.60;99.90;;;;;;5116216;28;19908;-76
2022/11/02 05:42:08;;;;;;;;;;;9.60;99.90;;;;;;5115434;28;19954;-76
2022/11/02 05:44:33;;;;;;;;;;;9.60;99.90;;;;;;5115963;28;19912;-76
2022/11/02 05:46:59;;;;;;;;;;;9.60;99.90;;;;;;5116342;28;19952;-77
2022/11/02 05:49:24;;;;;;;;;;;9.60;99.90;;;;;;5115952;28;19956;-77
2022/11/02 05:51:50;;;;;;;;;;;9.70;99.90;;;;;;5116162;28;20287;-75
2022/11/02 05:54:15;;;;;;;;;;;9.70;99.90;;;;;;5115819;28;20368;-76
2022/11/02 05:56:41;;;;;;;;;;;9.70;99.90;;;;;;5115807;28;19914;-75
2022/11/02 05:59:06;;;;;;;;;;;9.70;99.90;;;;;;5115926;28;19908;-77
2022/11/02 06:01:32;;;;;;;;;;;9.80;99.90;;;;;;5119141;28;20007;-77
2022/11/02 06:03:58;;;;;;;;;;;9.80;99.90;;;;;;5119193;28;19931;-76
2022/11/02 06:06:23;;;;;;;;;;;9.90;99.90;;;;;;5118003;28;19908;-77
2022/11/02 06:08:49;;;;;;;;;;;10.00;99.90;;;;;;5115533;28;20360;-78
2022/11/02 06:11:15;;;;;;;;;;;10.00;99.90;;;;;;5115821;28;19908;-78
2022/11/02 06:13:41;;;;;;;;;;;9.90;99.90;;;;;;5115481;28;19954;-78
2022/11/02 06:16:10;;;;;;;;;;;9.70;99.90;;;;;;5115930;28;19922;-75
2022/11/02 06:18:36;;;;;;;;;;;9.70;99.90;;;;;;5115294;28;20275;-76
2022/11/02 06:21:02;;;;;;;;;;;9.80;99.90;;;;;;5115350;28;19994;-77
2022/11/02 06:23:28;;;;;;;;;;;9.80;99.90;;;;;;5115286;28;19947;-77
2022/11/02 06:25:55;;;;;;;;;;;9.80;99.90;;;;;;5115146;28;19916;-76
2022/11/02 06:28:21;;;;;;;;;;;9.80;99.90;;;;;;5115230;28;19919;-78
2022/11/02 06:30:48;;;;;;;;;;;9.80;99.90;;;;;;5115165;28;19907;-76
2022/11/02 06:33:13;;;;;;;;;;;9.70;99.90;;;;;;5115410;28;19990;-77
2022/11/02 06:35:39;;;;;;;;;;;9.70;99.90;;;;;;5115061;28;20008;-77
2022/11/02 06:38:04;;;;;;;;;;;9.70;99.90;;;;;;5115282;28;19922;-76
2022/11/02 06:40:30;;;;;;;;;;;9.70;99.90;;;;;;5114986;28;19945;-76
2022/11/02 06:42:56;;;;;;;;;;;9.80;99.90;;;;;;5114926;28;19945;-76
2022/11/02 06:45:21;;;;;;;;;;;9.80;99.90;;;;;;5114752;28;19945;-76
2022/11/02 06:47:47;;;;;;;;;;;9.80;99.90;;;;;;5114904;28;20399;-77
2022/11/02 06:50:13;;;;;;;;;;;9.80;99.90;;;;;;5115358;28;19911;-77
2022/11/02 06:52:46;;;;;;;;;;;9.70;99.90;;;;;;5114633;28;19914;-76
2022/11/02 06:55:12;;;;;;;;;;;9.70;99.90;;;;;;5114718;28;19933;-77
2022/11/02 06:57:38;;;;;;;;;;;9.80;99.90;;;;;;5114930;28;19972;-77
2022/11/02 07:00:05;;;;;;;;;;;9.80;99.90;;;;;;5114894;28;19997;-76
2022/11/02 07:02:30;;;;;;;;;;;9.80;99.90;;;;;;5114321;28;20000;-74
2022/11/02 07:04:56;;;;;;;;;;;9.90;99.90;;;;;;5114820;28;19958;-78
2022/11/02 07:07:22;;;;;;;;;;;9.90;99.90;;;;;;5114548;28;20252;-77
2022/11/02 07:09:47;;;;;;;;;;;9.90;99.90;;;;;;5114723;28;19908;-77
2022/11/02 07:12:13;;;;;;;;;;;9.90;99.90;;;;;;5114413;28;19931;-77
2022/11/02 07:14:38;;;;;;;;;;;9.90;99.90;;;;;;5114398;28;19908;-76
2022/11/02 07:17:04;;;;;;;;;;;10.00;99.90;;;;;;5114937;28;19908;-77
2022/11/02 07:19:29;;;;;;;;;;;10.00;99.90;;;;;;5114569;28;19915;-77
2022/11/02 07:21:55;;;;;;;;;;;10.10;99.90;;;;;;5114553;28;19908;-79
2022/11/02 07:24:21;;;;;;;;;;;10.10;99.90;;;;;;5114640;28;19912;-77
2022/11/02 07:26:47;;;;;;;;;;;10.20;99.90;;;;;;5114167;28;19907;-76
2022/11/02 07:29:14;;;;;;;;;;;10.20;99.90;;;;;;5114246;28;20369;-79
2022/11/02 07:31:39;;;;;;;;;;;10.30;99.90;;;;;;5095847;28;20363;-77
2022/11/02 07:34:05;;;;;;;;;;;10.30;99.90;;;;;;5114143;28;19918;-75
2022/11/02 07:36:30;;;;;;;;;;;10.40;99.90;;;;;;5114388;28;19912;-77
2022/11/02 07:38:56;;;;;;;;;;;10.40;99.90;;;;;;5114332;28;19907;-77
2022/11/02 07:41:21;;;;;;;;;;;10.40;99.90;;;;;;5095839;28;19915;-77
2022/11/02 07:43:47;;;;;;;;;;;10.40;99.90;;;;;;5114263;28;20314;-77
2022/11/02 07:46:12;;;;;;;;;;;10.50;99.90;;;;;;5113914;28;19912;-76
2022/11/02 07:48:38;;;;;;;;;;;10.50;99.90;;;;;;5114264;28;19907;-76
2022/11/02 07:51:04;;;;;;;;;;;10.50;99.90;;;;;;5113970;28;19914;-76
2022/11/02 07:53:30;;;;;;;;;;;10.60;99.90;;;;;;5113988;28;19911;-76
2022/11/02 07:55:55;;;;;;;;;;;10.60;99.90;;;;;;5113904;28;19958;-78
2022/11/02 07:58:21;;;;;;;;;;;10.60;99.90;;;;;;5114388;28;19908;-76
2022/11/02 08:00:46;;;;;;;;;;;10.60;99.90;;;;;;5114107;28;19915;-77
2022/11/02 08:03:13;;;;;;;;;;;10.60;99.90;;;;;;5113703;28;19919;-77
2022/11/02 08:05:40;;;;;;;;;;;10.70;99.90;;;;;;5116423;28;20010;-77
2022/11/02 08:08:06;;;;;;;;;;;10.80;99.90;;;;;;5117906;28;19908;-76
2022/11/02 08:10:33;;;;;;;;;;;10.80;99.90;;;;;;5118449;28;19915;-76
2022/11/02 08:12:58;;;;;;;;;;;10.80;99.90;;;;;;5118050;28;19908;-76
2022/11/02 08:15:24;;;;;;;;;;;10.80;99.90;;;;;;5117809;28;20022;-76
2022/11/02 08:17:59;;;;;;;;;;;10.80;99.90;;;;;;5118557;28;19914;-77
2022/11/02 08:20:25;;;;;;;;;;;10.90;99.90;;;;;;5117704;28;20048;-76
2022/11/02 08:22:50;;;;;;;;;;;11.00;99.90;;;;;;5117638;28;20006;-76
2022/11/02 08:25:16;;;;;;;;;;;11.00;99.90;;;;;;5117577;28;20283;-78
2022/11/02 08:27:41;;;;;;;;;;;11.00;99.90;;;;;;5118157;28;19908;-77
2022/11/02 08:30:07;;;;;;;;;;;11.10;99.90;;;;;;5117518;28;19991;-77
2022/11/02 08:32:33;;;;;;;;;;;11.10;99.90;;;;;;5118032;28;19908;-78
2022/11/02 08:34:58;;;;;;;;;;;11.20;99.90;;;;;;5117731;28;19908;-76
2022/11/02 08:37:24;;;;;;;;;;;11.20;99.90;;;;;;5117383;28;19908;-76
2022/11/02 08:39:49;;;;;;;;;;;11.30;99.90;;;;;;5117627;28;19915;-77
2022/11/02 08:42:15;;;;;;;;;;;11.40;99.90;;;;;;5117229;28;20291;-79
2022/11/02 08:44:41;;;;;;;;;;;11.60;99.90;;;;;;5117461;28;19966;-77
2022/11/02 08:47:06;;;;;;;;;;;12.10;99.90;;;;;;5117164;28;19915;-77
2022/11/02 08:49:31;;;;;;;;;;;12.40;99.90;;;;;;5117408;28;19908;-78
2022/11/02 08:51:57;;;;;;;;;;;12.80;99.90;;;;;;5117062;28;19907;-78
2022/11/02 08:54:22;;;;;;;;;;;13.10;99.90;;;;;;5117300;28;19995;-77
2022/11/02 08:56:48;;;;;;;;;;;13.20;99.90;;;;;;5116984;28;19915;-76
2022/11/02 08:59:14;;;;;;;;;;;13.40;99.90;;;;;;5116959;28;19998;-78
2022/11/02 09:01:39;;;;;;;;;;;13.60;99.90;;;;;;5116872;28;19920;-78
2022/11/02 09:04:05;;;;;;;;;;;13.80;99.90;;;;;;5116805;28;19907;-76
2022/11/02 09:06:30;;;;;;;;;;;13.80;99.90;;;;;;5117326;28;19964;-77
2022/11/02 09:08:56;;;;;;;;;;;13.90;99.90;;;;;;5117104;28;19907;-76
2022/11/02 09:11:21;;;;;;;;;;;14.10;99.90;;;;;;5116758;28;20396;-76
2022/11/02 09:13:47;;;;;;;;;;;14.10;99.90;;;;;;5116782;28;19915;-77
2022/11/02 09:16:12;;;;;;;;;;;14.20;99.90;;;;;;5115872;28;19908;-78
2022/11/02 09:18:39;;;;;;;;;;;14.30;99.90;;;;;;5116931;28;19911;-77
2022/11/02 09:21:04;;;;;;;;;;;14.40;99.90;;;;;;5098010;28;19908;-76
2022/11/02 09:23:30;;;;;;;;;;;14.40;99.90;;;;;;5116686;28;20287;-75
2022/11/02 09:25:56;;;;;;;;;;;14.70;99.90;;;;;;5098121;28;20433;-77
2022/11/02 09:28:22;;;;;;;;;;;14.80;99.90;;;;;;5116389;28;20272;-76
2022/11/02 09:30:47;;;;;;;;;;;14.90;99.90;;;;;;5116339;28;19914;-76
2022/11/02 09:33:13;;;;;;;;;;;15.00;99.90;;;;;;5116602;28;19998;-77
2022/11/02 09:35:43;;;;;;;;;;;15.00;99.90;;;;;;5116219;28;19908;-76
2022/11/02 09:38:09;;;;;;;;;;;15.10;99.90;;;;;;5116469;28;20333;-77
2022/11/02 09:40:38;;;;;;;;;;;15.30;99.90;;;;;;5116176;28;19951;-77
2022/11/02 09:43:09;;;;;;;;;;;15.30;99.90;;;;;;5116406;28;19908;-76
2022/11/02 09:45:37;;;;;;;;;;;15.10;99.90;;;;;;5116294;28;19926;-77
2022/11/02 09:48:10;;;;;;;;;;;14.90;99.90;;;;;;5116594;28;19908;-76
2022/11/02 09:50:44;;;;;;;;;;;15.00;99.90;;;;;;5115998;28;20021;-76
2022/11/02 09:53:11;;;;;;;;;;;15.30;99.90;;;;;;5116549;28;19908;-77
2022/11/02 09:55:41;;;;;;;;;;;15.20;99.90;;;;;;5115842;28;19911;-76
2022/11/02 09:58:12;;;;;;;;;;;15.30;99.90;;;;;;5115787;28;19908;-77
2022/11/02 10:00:39;;;;;;;;;;;15.30;99.90;;;;;;5116039;28;19907;-77
2022/11/02 10:03:19;;;;;;;;;;;15.50;99.90;;;;;;5115290;28;20011;-75
2022/11/02 10:06:12;;;;;;;;;;;15.70;99.90;;;;;;5115922;28;20010;-77
2022/11/02 10:08:41;;;;;;;;;;;15.70;99.90;;;;;;5112004;28;19945;-76
2022/11/02 10:11:20;;;;;;;;;;;15.80;99.90;;;;;;5116098;28;19972;-76
2022/11/02 10:13:50;;;;;;;;;;;15.90;99.90;;;;;;5115547;28;19961;-77
2022/11/02 10:16:21;;;;;;;;;;;15.90;99.90;;;;;;5116078;28;19908;-77
2022/11/02 10:18:49;;;;;;;;;;;16.00;99.90;;;;;;5115914;28;19908;-76
2022/11/02 10:21:18;;;;;;;;;;;16.20;99.90;;;;;;5115367;28;19957;-75
2022/11/02 10:23:49;;;;;;;;;;;16.30;99.90;;;;;;5115176;28;19911;-75
2022/11/02 10:26:18;;;;;;;;;;;16.30;99.90;;;;;;5115765;28;19972;-76
2022/11/02 10:28:46;;;;;;;;;;;16.40;99.90;;;;;;5115066;28;20287;-76
2022/11/02 10:31:32;;;;;;;;;;;16.30;99.90;;;;;;5115523;28;19949;-75
2022/11/02 10:34:12;;;;;;;;;;;16.40;99.90;;;;;;5115459;28;20311;-76
2022/11/02 10:36:38;;;;;;;;;;;16.50;99.90;;;;;;5115096;28;19907;-77
2022/11/02 10:39:22;;;;;;;;;;;16.40;99.90;;;;;;5115314;28;19908;-75
2022/11/02 10:41:59;;;;;;;;;;;16.40;99.90;;;;;;5114866;28;20372;-76
2022/11/02 10:44:24;;;;;;;;;;;16.40;99.90;;;;;;5115389;28;19908;-76
2022/11/02 10:46:56;;;;;;;;;;;16.50;99.90;;;;;;5114801;28;19919;-76
2022/11/02 10:49:27;;;;;;;;;;;16.50;99.90;;;;;;5115027;28;19908;-77
2022/11/02 10:51:53;;;;;;;;;;;16.50;99.90;;;;;;5114699;28;20382;-76
2022/11/02 10:54:19;;;;;;;;;;;16.50;99.90;;;;;;5114775;28;19908;-76
2022/11/02 10:56:45;;;;;;;;;;;16.60;99.90;;;;;;5114695;28;20348;-77
2022/11/02 10:59:15;;;;;;;;;;;16.50;99.90;;;;;;5114567;28;19911;-76
2022/11/02 11:01:50;;;;;;;;;;;16.50;99.90;;;;;;5114517;28;20460;-76
2022/11/02 11:04:25;;;;;;;;;;;16.40;99.90;;;;;;5114725;28;19959;-76
2022/11/02 11:06:51;;;;;;;;;;;16.30;99.90;;;;;;5114774;28;19907;-76
2022/11/02 11:09:29;;;;;;;;;;;16.20;99.90;;;;;;5113655;28;20348;-76
2022/11/02 11:12:00;;;;;;;;;;;16.10;99.90;;;;;;5114946;28;20003;-76
2022/11/02 11:14:28;;;;;;;;;;;16.10;99.90;;;;;;5114366;28;19976;-76
2022/11/02 11:16:58;;;;;;;;;;;16.20;99.90;;;;;;5114423;28;19947;-76
2022/11/02 11:19:29;;;;;;;;;;;16.20;99.90;;;;;;5115009;28;19914;-76
2022/11/02 11:21:55;;;;;;;;;;;16.20;99.90;;;;;;5114651;28;19907;-77
2022/11/02 11:24:24;;;;;;;;;;;16.20;99.90;;;;;;5114480;28;19915;-77
2022/11/02 11:26:58;;;;;;;;;;;16.20;99.90;;;;;;5114934;28;19908;-76
2022/11/02 11:29:24;;;;;;;;;;;16.20;99.90;;;;;;5114167;28;20360;-77
2022/11/02 11:31:49;;;;;;;;;;;16.30;99.90;;;;;;5095856;28;19962;-75
2022/11/02 11:34:21;;;;;;;;;;;16.30;99.90;;;;;;5114107;28;19979;-77
2022/11/02 11:36:47;;;;;;;;;;;16.40;99.90;;;;;;5114386;28;19957;-77
2022/11/02 11:39:32;;;;;;;;;;;16.50;99.90;;;;;;5113383;28;19907;-77
2022/11/02 11:41:58;;;;;;;;;;;16.40;99.90;;;;;;5114375;28;19912;-77
2022/11/02 11:44:24;;;;;;;;;;;16.30;99.90;;;;;;5114188;28;20371;-78
2022/11/02 11:46:51;;;;;;;;;;;16.30;99.90;;;;;;5114237;28;19907;-76
2022/11/02 11:49:19;;;;;;;;;;;16.10;99.90;;;;;;5113968;28;20408;-77
2022/11/02 11:51:47;;;;;;;;;;;16.00;99.90;;;;;;5113907;28;19915;-79
2022/11/02 11:54:26;;;;;;;;;;;15.90;99.90;;;;;;5114187;28;19908;-77
2022/11/02 11:56:53;;;;;;;;;;;15.80;99.90;;;;;;5113904;28;20256;-77
2022/11/02 11:59:18;;;;;;;;;;;15.70;99.90;;;;;;5113884;28;19939;-77
2022/11/02 12:01:44;;;;;;;;;;;15.70;99.90;;;;;;5113900;28;19920;-76
2022/11/02 12:04:09;;;;;;;;;;;15.70;99.90;;;;;;5113870;28;20268;-76
2022/11/02 12:06:45;;;;;;;;;;;15.70;99.90;;;;;;5114366;28;19916;-76
2022/11/02 12:09:29;;;;;;;;;;;15.70;99.90;;;;;;5113831;28;20406;-78
2022/11/02 12:12:00;;;;;;;;;;;15.60;99.90;;;;;;5113785;28;19907;-78
2022/11/02 12:14:44;;;;;;;;;;;15.40;99.90;;;;;;5113777;28;19990;-77
2022/11/02 12:17:19;;;;;;;;;;;15.30;99.90;;;;;;5114260;28;19915;-77
2022/11/02 12:19:47;;;;;;;;;;;15.20;99.90;;;;;;5113744;28;19908;-76
2022/11/02 12:22:18;;;;;;;;;;;14.90;99.90;;;;;;5113942;28;20413;-77
2022/11/02 12:24:49;;;;;;;;;;;14.90;99.90;;;;;;5113422;28;19916;-77
2022/11/02 12:27:18;;;;;;;;;;;14.80;99.90;;;;;;5114157;28;19914;-77
2022/11/02 12:29:43;;;;;;;;;;;14.90;99.90;;;;;;5113599;28;19961;-76
2022/11/02 12:32:27;;;;;;;;;;;15.00;99.90;;;;;;5113601;28;20355;-77
2022/11/02 12:35:07;;;;;;;;;;;15.10;99.90;;;;;;5113619;28;19951;-76
2022/11/02 12:37:44;;;;;;;;;;;15.30;99.90;;;;;;5113815;28;19995;-78
2022/11/02 12:40:12;;;;;;;;;;;15.50;99.90;;;;;;5113824;28;20375;-77
2022/11/02 12:43:00;;;;;;;;;;;15.60;99.90;;;;;;5114103;28;19914;-76
2022/11/02 12:45:26;;;;;;;;;;;15.80;99.90;;;;;;5113729;28;20408;-77
2022/11/02 12:47:58;;;;;;;;;;;16.00;99.90;;;;;;5113745;28;19908;-77
2022/11/02 12:50:47;;;;;;;;;;;16.10;99.90;;;;;;5113441;28;19908;-78
2022/11/02 12:53:12;;;;;;;;;;;16.10;99.90;;;;;;5117696;28;19908;-76
2022/11/02 12:55:44;;;;;;;;;;;16.10;99.90;;;;;;5117037;28;19915;-77
2022/11/02 12:58:20;;;;;;;;;;;16.10;99.90;;;;;;5117579;28;20264;-77
2022/11/02 13:00:48;;;;;;;;;;;16.20;99.90;;;;;;5116944;28;19930;-77
2022/11/02 13:03:16;;;;;;;;;;;16.30;99.90;;;;;;5116746;28;19919;-76
2022/11/02 13:05:47;;;;;;;;;;;16.40;99.90;;;;;;5098472;28;19912;-77
2022/11/02 13:08:15;;;;;;;;;;;16.40;99.90;;;;;;5117160;28;19907;-77
2022/11/02 13:10:49;;;;;;;;;;;16.40;99.90;;;;;;5116754;28;19911;-76
2022/11/02 13:13:17;;;;;;;;;;;16.40;99.90;;;;;;5116946;28;20313;-77
2022/11/02 13:15:44;;;;;;;;;;;16.40;99.90;;;;;;5116600;28;20363;-76
2022/11/02 13:18:14;;;;;;;;;;;16.50;99.90;;;;;;5116594;28;19941;-77
2022/11/02 13:20:43;;;;;;;;;;;16.40;99.90;;;;;;5116841;28;20306;-77
2022/11/02 13:23:17;;;;;;;;;;;16.30;99.90;;;;;;5116422;28;19908;-77
2022/11/02 13:25:48;;;;;;;;;;;16.30;99.90;;;;;;5116568;28;20276;-76
2022/11/02 13:28:17;;;;;;;;;;;16.40;99.90;;;;;;5116391;28;20363;-77
2022/11/02 13:30:43;;;;;;;;;;;16.50;99.90;;;;;;5116643;28;19915;-78
2022/11/02 13:33:17;;;;;;;;;;;16.60;99.90;;;;;;5116863;28;19973;-77
2022/11/02 13:35:44;;;;;;;;;;;16.60;99.90;;;;;;5116514;28;19914;-79
2022/11/02 13:38:26;;;;;;;;;;;16.70;99.90;;;;;;5116192;28;19988;-76
2022/11/02 13:40:57;;;;;;;;;;;16.80;99.90;;;;;;5116402;28;19943;-75
2022/11/02 13:43:41;;;;;;;;;;;16.90;99.90;;;;;;5116051;28;19999;-78
2022/11/02 13:46:07;;;;;;;;;;;17.00;99.90;;;;;;5115996;28;20008;-76
2022/11/02 13:48:38;;;;;;;;;;;17.00;99.90;;;;;;5115950;28;19908;-78
2022/11/02 13:51:07;;;;;;;;;;;17.00;99.90;;;;;;5115959;28;19978;-77
2022/11/02 13:53:35;;;;;;;;;;;17.00;99.90;;;;;;5116142;28;20003;-77
2022/11/02 13:56:04;;;;;;;;;;;17.10;99.90;;;;;;5115856;28;19916;-76
2022/11/02 13:58:32;;;;;;;;;;;17.10;99.90;;;;;;5115901;28;19957;-76
2022/11/02 14:00:58;;;;;;;;;;;17.10;99.90;;;;;;5115867;28;19912;-77
2022/11/02 14:03:27;;;;;;;;;;;17.00;99.90;;;;;;5115255;28;19912;-76
2022/11/02 14:05:54;;;;;;;;;;;17.00;99.90;;;;;;5115619;28;19959;-77
2022/11/02 14:08:40;;;;;;;;;;;16.80;99.90;;;;;;5115955;28;19908;-77
2022/11/02 14:11:08;;;;;;;;;;;16.80;99.90;;;;;;5115003;28;20329;-77
2022/11/02 14:13:52;;;;;;;;;;;16.70;99.90;;;;;;5115510;28;19907;-77
2022/11/02 14:16:36;;;;;;;;;;;16.60;99.90;;;;;;5115577;28;19957;-76
2022/11/02 14:19:16;;;;;;;;;;;16.50;99.90;;;;;;5115711;28;19929;-76
2022/11/02 14:22:04;;;;;;;;;;;16.40;99.90;;;;;;5115688;28;19915;-76
2022/11/02 14:24:36;;;;;;;;;;;16.40;99.90;;;;;;5115177;28;19907;-77
2022/11/02 14:27:22;;;;;;;;;;;16.30;99.90;;;;;;5115564;28;19919;-77
2022/11/02 14:29:49;;;;;;;;;;;16.20;99.90;;;;;;5098005;28;19950;-76
2022/11/02 14:32:22;;;;;;;;;;;16.10;99.90;;;;;;5116274;28;19939;-77
2022/11/02 14:34:50;;;;;;;;;;;16.10;99.90;;;;;;5115133;28;19986;-77
2022/11/02 14:37:38;;;;;;;;;;;16.00;99.90;;;;;;5115089;28;20299;-78
2022/11/02 14:40:03;;;;;;;;;;;15.90;99.90;;;;;;5115611;28;19908;-77
2022/11/02 14:42:35;;;;;;;;;;;15.80;99.90;;;;;;5114999;28;19907;-77